createdAt,value
2023-05-06T00:00:55.004Z,15.40
2023-05-06T00:03:23.432Z,15.30
2023-05-06T00:05:54.590Z,15.30
2023-05-06T00:08:22.883Z,15.30
2023-05-06T00:10:51.075Z,15.40
2023-05-06T00:13:20.942Z,15.30
2023-05-06T00:15:49.069Z,15.40
2023-05-06T00:18:17.397Z,15.30
2023-05-06T00:20:45.510Z,15.20
2023-05-06T00:23:13.629Z,15.30
2023-05-06T00:25:41.914Z,15.30
2023-05-06T00:28:10.105Z,15.30
2023-05-06T00:30:42.603Z,15.30
2023-05-06T00:33:10.856Z,15.30
2023-05-06T00:35:39.028Z,15.50
2023-05-06T00:38:11.355Z,15.50
2023-05-06T00:40:40.661Z,15.30
2023-05-06T00:43:09.118Z,15.30
2023-05-06T00:45:37.308Z,15.30
2023-05-06T00:48:08.608Z,15.30
2023-05-06T00:50:37.854Z,15.30
2023-05-06T00:53:09.405Z,15.30
2023-05-06T00:55:39.131Z,15.30
2023-05-06T00:58:07.765Z,15.20
2023-05-06T01:00:36.009Z,15.20
2023-05-06T01:03:04.429Z,15.20
2023-05-06T01:05:38.895Z,15.10
2023-05-06T01:08:14.291Z,15.10
2023-05-06T01:10:50.810Z,15.00
2023-05-06T01:13:26.266Z,15.00
2023-05-06T01:15:56.698Z,14.90
2023-05-06T01:18:28.369Z,14.90
2023-05-06T01:20:59.199Z,14.80
2023-05-06T01:23:28.685Z,14.90
2023-05-06T01:25:57.026Z,14.80
2023-05-06T01:28:25.338Z,14.80
2023-05-06T01:31:00.645Z,14.70
2023-05-06T01:33:38.103Z,14.70
2023-05-06T01:36:14.236Z,14.70
2023-05-06T01:38:53.936Z,14.70
2023-05-06T01:41:24.096Z,14.60
2023-05-06T01:43:54.667Z,14.60
2023-05-06T01:46:26.752Z,14.50
2023-05-06T01:48:56.734Z,14.60
2023-05-06T01:51:26.129Z,14.50
2023-05-06T01:53:56.562Z,14.30
2023-05-06T01:56:24.825Z,14.60
2023-05-06T01:58:52.936Z,14.40
2023-05-06T02:01:20.901Z,14.40
2023-05-06T02:03:49.058Z,14.60
2023-05-06T02:06:17.313Z,14.40
2023-05-06T02:08:45.404Z,14.30
2023-05-06T02:11:14.943Z,14.40
2023-05-06T02:13:43.437Z,14.30
2023-05-06T02:16:11.523Z,14.30
2023-05-06T02:18:39.765Z,14.20
2023-05-06T02:21:08.049Z,14.20
2023-05-06T02:23:36.281Z,14.20
2023-05-06T02:26:04.448Z,14.20
2023-05-06T02:28:33.988Z,14.20
2023-05-06T02:31:02.412Z,14.20
2023-05-06T02:33:30.388Z,14.20
2023-05-06T02:35:58.707Z,14.20
2023-05-06T02:38:27.333Z,14.20
2023-05-06T02:40:55.603Z,14.10
2023-05-06T02:43:23.829Z,14.20
2023-05-06T02:45:53.864Z,14.10
2023-05-06T02:48:21.849Z,14.10
2023-05-06T02:50:50.566Z,14.10
2023-05-06T02:53:18.662Z,14.10
2023-05-06T02:55:46.907Z,14.00
2023-05-06T02:58:14.913Z,13.90
2023-05-06T03:00:42.997Z,14.10
2023-05-06T03:03:12.524Z,14.00
2023-05-06T03:05:42.138Z,14.00
2023-05-06T03:08:10.267Z,14.00
2023-05-06T03:10:38.533Z,14.00
2023-05-06T03:13:07.008Z,14.10
2023-05-06T03:16:01.151Z,14.10
2023-05-06T03:18:30.847Z,14.10
2023-05-06T03:20:58.867Z,14.10
2023-05-06T03:23:26.984Z,14.10
2023-05-06T03:25:55.415Z,14.10
2023-05-06T03:28:23.537Z,14.10
2023-05-06T03:30:51.755Z,14.20
2023-05-06T03:33:19.885Z,14.30
2023-05-06T03:35:49.572Z,14.20
2023-05-06T03:38:17.668Z,14.10
2023-05-06T03:40:46.208Z,14.20
2023-05-06T03:43:14.312Z,14.20
2023-05-06T03:45:42.822Z,14.20
2023-05-06T03:48:11.080Z,14.20
2023-05-06T03:50:39.812Z,14.20
2023-05-06T03:53:09.519Z,14.20
2023-05-06T03:55:37.633Z,14.20
2023-05-06T03:58:06.040Z,14.20
2023-05-06T04:00:34.311Z,14.20
2023-05-06T04:03:02.597Z,14.20
2023-05-06T04:05:30.706Z,14.20
2023-05-06T04:07:58.821Z,14.20
2023-05-06T04:10:28.416Z,14.20
2023-05-06T04:12:56.742Z,14.20
2023-05-06T04:15:25.210Z,14.20
2023-05-06T04:17:53.463Z,14.30
2023-05-06T04:20:21.487Z,14.30
2023-05-06T04:22:49.541Z,14.10
2023-05-06T04:25:18.472Z,14.30
2023-05-06T04:27:48.146Z,14.30
2023-05-06T04:30:16.419Z,14.30
2023-05-06T04:32:44.759Z,14.40
2023-05-06T04:35:12.891Z,14.40
2023-05-06T04:37:41.464Z,14.30
2023-05-06T04:40:13.841Z,14.30
2023-05-06T04:42:42.055Z,14.30
2023-05-06T04:45:12.707Z,14.40
2023-05-06T04:47:41.249Z,14.40
2023-05-06T04:50:10.677Z,14.40
2023-05-06T04:52:39.055Z,14.40
2023-05-06T04:55:07.979Z,14.50
2023-05-06T04:57:36.087Z,14.50
2023-05-06T05:00:04.522Z,14.50
2023-05-06T05:02:34.182Z,14.50
2023-05-06T05:05:02.342Z,14.50
2023-05-06T05:07:30.654Z,14.60
2023-05-06T05:09:58.788Z,14.60
2023-05-06T05:12:26.932Z,14.80
2023-05-06T05:14:54.949Z,14.70
2023-05-06T05:17:22.833Z,14.70
2023-05-06T05:19:52.983Z,14.70
2023-05-06T05:22:21.128Z,14.70
2023-05-06T05:24:49.244Z,14.70
2023-05-06T05:27:17.372Z,14.80
2023-05-06T05:29:45.459Z,14.80
2023-05-06T05:32:13.706Z,14.80
2023-05-06T05:34:41.755Z,14.90
2023-05-06T05:37:11.454Z,15.10
2023-05-06T05:39:39.562Z,15.20
2023-05-06T05:42:07.786Z,15.20
2023-05-06T05:44:36.363Z,15.30
2023-05-06T05:47:04.470Z,15.40
2023-05-06T05:49:32.536Z,15.40
2023-05-06T05:52:00.566Z,15.50
2023-05-06T05:54:30.389Z,15.60
2023-05-06T05:56:59.279Z,15.40
2023-05-06T05:59:27.590Z,15.70
2023-05-06T06:01:57.701Z,15.70
2023-05-06T06:04:25.858Z,15.80
2023-05-06T06:06:54.255Z,15.90
2023-05-06T06:09:22.975Z,15.90
2023-05-06T06:12:00.497Z,15.90
2023-05-06T06:14:28.984Z,16.00
2023-05-06T06:16:57.116Z,16.10
2023-05-06T06:19:25.413Z,16.00
2023-05-06T06:21:53.707Z,16.00
2023-05-06T06:24:23.401Z,16.10
2023-05-06T06:26:51.609Z,16.20
2023-05-06T06:29:21.258Z,16.20
2023-05-06T06:31:49.352Z,16.20
2023-05-06T06:34:17.887Z,16.30
2023-05-06T06:36:46.302Z,16.30
2023-05-06T06:39:14.611Z,16.30
2023-05-06T06:41:42.926Z,16.40
2023-05-06T06:44:10.962Z,16.40
2023-05-06T06:46:40.661Z,16.40
2023-05-06T06:49:08.793Z,16.50
2023-05-06T06:51:36.961Z,16.50
2023-05-06T06:54:05.314Z,16.60
2023-05-06T06:56:33.434Z,16.60
2023-05-06T06:59:01.382Z,16.60
2023-05-06T07:01:30.155Z,16.60
2023-05-06T07:03:59.886Z,16.60
2023-05-06T07:06:28.388Z,16.60
2023-05-06T07:09:01.983Z,16.70
2023-05-06T07:11:30.612Z,16.60
2023-05-06T07:13:58.963Z,16.60
2023-05-06T07:16:27.149Z,16.70
2023-05-06T07:18:55.667Z,16.70
2023-05-06T07:21:25.440Z,17.00
2023-05-06T07:23:56.336Z,17.00
2023-05-06T07:26:24.749Z,17.10
2023-05-06T07:28:56.641Z,17.10
2023-05-06T07:31:26.730Z,17.20
2023-05-06T07:33:59.047Z,17.30
2023-05-06T07:36:29.424Z,17.40
2023-05-06T07:39:00.471Z,17.50
2023-05-06T07:41:29.119Z,17.50
2023-05-06T07:43:57.761Z,17.60
2023-05-06T07:46:26.859Z,17.60
2023-05-06T07:48:58.215Z,17.80
2023-05-06T07:51:27.249Z,17.80
2023-05-06T07:53:57.466Z,17.90
2023-05-06T07:56:28.898Z,18.00
2023-05-06T07:59:01.570Z,18.20
2023-05-06T08:01:34.494Z,18.20
2023-05-06T08:04:12.051Z,18.20
2023-05-06T08:06:42.090Z,18.40
2023-05-06T08:09:17.021Z,18.40
2023-05-06T08:14:50.470Z,18.60
2023-05-06T08:17:18.810Z,18.70
2023-05-06T08:19:49.570Z,18.90
2023-05-06T08:22:17.947Z,18.90
2023-05-06T08:24:47.813Z,19.00
2023-05-06T08:27:16.093Z,19.00
2023-05-06T08:29:44.500Z,19.20
2023-05-06T08:32:12.840Z,19.20
2023-05-06T08:34:43.763Z,19.30
2023-05-06T08:37:12.053Z,19.30
2023-05-06T08:39:41.545Z,19.40
2023-05-06T08:42:17.604Z,19.40
2023-05-06T08:44:46.041Z,19.40
2023-05-06T08:47:14.433Z,19.60
2023-05-06T08:49:44.824Z,19.60
2023-05-06T08:52:13.438Z,19.70
2023-05-06T08:54:42.756Z,19.60
2023-05-06T08:57:16.634Z,19.60
2023-05-06T08:59:45.232Z,19.70
2023-05-06T09:02:14.011Z,19.70
2023-05-06T09:04:43.103Z,19.70
2023-05-06T09:07:11.407Z,19.80
2023-05-06T09:09:39.822Z,19.80
2023-05-06T09:12:13.824Z,19.90
2023-05-06T09:14:43.142Z,20.10
2023-05-06T09:17:24.108Z,20.20
2023-05-06T09:19:53.584Z,20.20
2023-05-06T09:22:23.416Z,20.40
2023-05-06T09:24:57.072Z,20.60
2023-05-06T09:27:28.327Z,20.70
2023-05-06T09:30:06.926Z,20.90
2023-05-06T09:32:38.186Z,21.00
2023-05-06T09:35:09.975Z,21.20
2023-05-06T09:37:38.574Z,21.30
2023-05-06T09:40:09.280Z,21.50
2023-05-06T09:42:39.539Z,21.60
2023-05-06T09:45:12.241Z,21.60
2023-05-06T09:47:40.950Z,21.50
2023-05-06T09:50:19.179Z,21.60
2023-05-06T09:52:49.102Z,21.70
2023-05-06T09:55:21.801Z,21.90
2023-05-06T09:57:54.631Z,22.00
2023-05-06T10:00:29.270Z,22.10
2023-05-06T10:02:58.300Z,22.20
2023-05-06T10:05:27.107Z,22.30
2023-05-06T10:07:58.357Z,22.50
2023-05-06T10:10:29.674Z,22.50
2023-05-06T10:13:03.569Z,22.40
2023-05-06T10:15:33.123Z,22.60
2023-05-06T10:18:02.513Z,22.70
2023-05-06T10:20:32.821Z,22.80
2023-05-06T10:23:08.019Z,22.90
2023-05-06T10:25:39.125Z,23.00
2023-05-06T10:28:12.756Z,23.20
2023-05-06T10:30:47.041Z,23.40
2023-05-06T10:33:18.169Z,23.50
2023-05-06T10:35:53.701Z,23.60
2023-05-06T10:38:26.063Z,23.80
2023-05-06T10:40:57.827Z,23.70
2023-05-06T10:43:29.337Z,23.60
2023-05-06T10:46:02.566Z,23.70
2023-05-06T10:48:31.229Z,23.70
2023-05-06T10:51:27.454Z,23.80
2023-05-06T10:54:03.879Z,23.80
2023-05-06T10:56:34.301Z,23.90
2023-05-06T10:59:10.748Z,23.90
2023-05-06T11:01:39.947Z,23.90
2023-05-06T11:04:12.628Z,24.10
2023-05-06T11:06:44.787Z,24.10
2023-05-06T11:09:20.719Z,24.10
2023-05-06T11:12:02.078Z,24.30
2023-05-06T11:14:33.252Z,24.30
2023-05-06T11:17:02.754Z,24.00
2023-05-06T11:19:32.317Z,24.00
2023-05-06T11:22:02.269Z,24.10
2023-05-06T11:24:31.781Z,24.20
2023-05-06T11:27:01.515Z,24.40
2023-05-06T11:29:31.284Z,24.30
2023-05-06T11:32:00.358Z,24.10
2023-05-06T11:34:29.908Z,24.30
2023-05-06T11:37:02.351Z,24.40
2023-05-06T11:39:36.635Z,24.40
2023-05-06T11:42:09.177Z,24.30
2023-05-06T11:44:40.626Z,24.20
2023-05-06T11:47:10.054Z,24.30
2023-05-06T11:49:42.189Z,24.40
2023-05-06T11:52:10.910Z,24.50
2023-05-06T11:54:41.682Z,24.70
2023-05-06T11:57:10.582Z,24.80
2023-05-06T11:59:43.376Z,24.70
2023-05-06T12:02:14.320Z,24.70
2023-05-06T12:04:45.935Z,24.80
2023-05-06T12:07:15.323Z,24.90
2023-05-06T12:09:47.154Z,24.80
2023-05-06T12:12:22.521Z,24.70
2023-05-06T12:14:54.383Z,24.70
2023-05-06T12:17:23.238Z,24.80
2023-05-06T12:19:51.943Z,24.80
2023-05-06T12:22:21.725Z,24.90
2023-05-06T12:24:52.923Z,24.80
2023-05-06T12:27:34.432Z,24.70
2023-05-06T12:30:11.792Z,24.90
2023-05-06T12:33:01.571Z,24.90
2023-05-06T12:35:33.353Z,24.90
2023-05-06T12:38:11.121Z,24.90
2023-05-06T12:40:44.270Z,25.10
2023-05-06T12:43:13.860Z,25.10
2023-05-06T12:45:46.383Z,25.30
2023-05-06T12:48:19.678Z,25.30
2023-05-06T12:50:48.341Z,25.30
2023-05-06T12:53:32.733Z,25.10
2023-05-06T12:56:00.883Z,25.10
2023-05-06T12:58:29.386Z,25.10
2023-05-06T13:00:58.949Z,25.00
2023-05-06T13:03:27.464Z,25.10
2023-05-06T13:05:55.756Z,25.10
2023-05-06T13:08:23.937Z,25.00
2023-05-06T13:10:52.018Z,24.90
2023-05-06T13:13:20.609Z,24.80
2023-05-06T13:15:49.324Z,24.70
2023-05-06T13:18:19.245Z,24.60
2023-05-06T13:20:48.984Z,24.40
2023-05-06T13:23:17.959Z,24.50
2023-05-06T13:26:02.712Z,24.50
2023-05-06T13:28:32.913Z,24.60
2023-05-06T13:31:01.148Z,24.70
2023-05-06T13:33:31.154Z,24.70
2023-05-06T13:35:59.314Z,24.90
2023-05-06T13:38:27.658Z,24.90
2023-05-06T13:40:55.824Z,24.80
2023-05-06T13:43:25.372Z,24.80
2023-05-06T13:45:54.321Z,24.70
2023-05-06T13:48:22.663Z,24.70
2023-05-06T13:50:52.480Z,24.70
2023-05-06T13:53:21.569Z,24.50
2023-05-06T13:55:49.660Z,24.70
2023-05-06T13:58:18.302Z,24.60
2023-05-06T14:00:46.604Z,24.50
2023-05-06T14:03:15.248Z,24.40
2023-05-06T14:05:46.345Z,24.20
2023-05-06T14:08:16.083Z,24.30
2023-05-06T14:10:46.779Z,24.20
2023-05-06T14:13:14.961Z,24.10
2023-05-06T14:15:45.976Z,23.90
2023-05-06T14:18:14.412Z,23.70
2023-05-06T14:20:42.930Z,23.50
2023-05-06T14:23:11.122Z,23.80
2023-05-06T14:25:40.591Z,24.00
2023-05-06T14:28:10.478Z,23.90
2023-05-06T14:30:38.891Z,23.90
2023-05-06T14:33:08.819Z,24.00
2023-05-06T14:35:37.826Z,23.90
2023-05-06T14:38:06.098Z,23.80
2023-05-06T14:40:38.967Z,23.70
2023-05-06T14:43:09.173Z,23.70
2023-05-06T14:45:37.373Z,23.80
2023-05-06T14:48:06.687Z,23.80
2023-05-06T14:50:35.499Z,23.70
2023-05-06T14:53:04.044Z,23.70
2023-05-06T14:55:32.531Z,23.70
2023-05-06T14:58:00.672Z,23.70
2023-05-06T15:00:30.302Z,23.70
2023-05-06T15:02:59.461Z,23.60
2023-05-06T15:05:27.934Z,23.40
2023-05-06T15:07:57.189Z,23.20
2023-05-06T15:10:25.657Z,23.20
2023-05-06T15:12:55.685Z,23.20
2023-05-06T15:15:23.758Z,23.10
2023-05-06T15:17:53.374Z,23.10
2023-05-06T15:20:21.594Z,23.00
2023-05-06T15:22:53.081Z,22.80
2023-05-06T15:25:34.080Z,22.60
2023-05-06T15:28:03.530Z,22.60
2023-05-06T15:30:31.882Z,22.50
2023-05-06T15:33:02.780Z,22.50
2023-05-06T15:35:32.093Z,22.40
2023-05-06T15:38:00.185Z,22.30
2023-05-06T15:40:28.621Z,22.20
2023-05-06T15:42:57.235Z,22.10
2023-05-06T15:45:27.716Z,22.00
2023-05-06T15:47:56.674Z,21.90
2023-05-06T15:52:59.840Z,21.90
2023-05-06T15:55:34.539Z,21.90
2023-05-06T15:58:09.676Z,21.70
2023-05-06T16:00:37.926Z,21.60
2023-05-06T16:03:07.965Z,21.50
2023-05-06T16:05:39.645Z,21.50
2023-05-06T16:08:08.090Z,21.50
2023-05-06T16:10:36.566Z,21.50
2023-05-06T16:13:04.884Z,21.40
2023-05-06T16:15:33.023Z,21.50
2023-05-06T16:18:01.655Z,21.50
2023-05-06T16:20:32.037Z,21.40
2023-05-06T16:23:02.812Z,21.40
2023-05-06T16:25:33.578Z,21.40
2023-05-06T16:28:01.684Z,21.20
2023-05-06T16:30:30.006Z,21.10
2023-05-06T16:33:01.477Z,20.80
2023-05-06T16:35:31.211Z,20.60
2023-05-06T16:37:59.511Z,20.40
2023-05-06T16:40:31.025Z,20.10
2023-05-06T16:42:59.137Z,19.90
2023-05-06T16:45:27.469Z,19.70
2023-05-06T16:48:00.564Z,19.80
2023-05-06T16:50:28.774Z,19.50
2023-05-06T16:52:59.476Z,19.40
2023-05-06T16:55:29.131Z,19.20
2023-05-06T16:57:57.282Z,19.10
2023-05-06T17:00:26.528Z,19.10
2023-05-06T17:02:54.829Z,19.10
2023-05-06T17:05:24.397Z,18.90
2023-05-06T17:07:52.610Z,18.90
2023-05-06T17:10:22.180Z,18.90
2023-05-06T17:12:52.100Z,18.80
2023-05-06T17:15:20.750Z,18.80
2023-05-06T17:17:49.433Z,18.80
2023-05-06T17:20:19.858Z,18.80
2023-05-06T17:22:48.269Z,18.80
2023-05-06T17:25:16.894Z,18.80
2023-05-06T17:27:47.835Z,18.80
2023-05-06T17:30:22.863Z,18.90
2023-05-06T17:32:54.261Z,19.00
2023-05-06T17:35:26.294Z,18.90
2023-05-06T17:38:00.408Z,18.80
2023-05-06T17:40:31.537Z,18.90
2023-05-06T17:42:59.891Z,18.90
2023-05-06T17:45:29.600Z,18.90
2023-05-06T17:48:00.843Z,18.80
2023-05-06T17:50:29.040Z,18.80
2023-05-06T17:52:57.422Z,18.90
2023-05-06T17:55:26.060Z,18.80
2023-05-06T17:57:56.515Z,18.80
2023-05-06T18:00:29.010Z,18.80
2023-05-06T18:02:58.227Z,18.70
2023-05-06T18:05:31.674Z,18.80
2023-05-06T18:08:02.676Z,18.80
2023-05-06T18:10:31.248Z,18.80
2023-05-06T18:12:59.935Z,18.80
2023-05-06T18:15:33.665Z,18.90
2023-05-06T18:18:04.537Z,18.90
2023-05-06T18:20:33.762Z,19.00
2023-05-06T18:23:05.300Z,18.90
2023-05-06T18:25:33.780Z,19.10
2023-05-06T18:28:05.705Z,18.90
2023-05-06T18:30:36.013Z,18.90
2023-05-06T18:33:28.980Z,18.80
2023-05-06T18:36:00.117Z,18.80
2023-05-06T18:38:30.890Z,18.70
2023-05-06T18:40:59.454Z,18.80
2023-05-06T18:43:28.669Z,18.80
2023-05-06T18:46:02.630Z,18.80
2023-05-06T18:48:35.351Z,18.80
2023-05-06T18:51:15.208Z,18.70
2023-05-06T18:53:47.135Z,18.70
2023-05-06T18:56:16.130Z,18.70
2023-05-06T18:58:44.609Z,18.60
2023-05-06T19:01:16.868Z,18.60
2023-05-06T19:03:45.320Z,18.50
2023-05-06T19:06:14.117Z,18.30
2023-05-06T19:08:42.685Z,18.20
2023-05-06T19:11:19.725Z,18.10
2023-05-06T19:13:48.247Z,18.00
2023-05-06T19:16:18.042Z,18.00
2023-05-06T19:18:48.087Z,18.00
2023-05-06T19:21:16.559Z,18.00
2023-05-06T19:23:44.832Z,18.00
2023-05-06T19:26:13.209Z,17.90
2023-05-06T19:28:43.180Z,17.90
2023-05-06T19:31:14.452Z,17.80
2023-05-06T19:33:47.621Z,17.90
2023-05-06T19:36:16.518Z,17.60
2023-05-06T19:38:45.164Z,17.60
2023-05-06T19:41:13.386Z,17.60
2023-05-06T19:43:43.176Z,17.50
2023-05-06T19:46:12.847Z,17.40
2023-05-06T19:48:40.958Z,17.40
2023-05-06T19:51:10.527Z,17.40
2023-05-06T19:53:38.800Z,17.40
2023-05-06T19:56:10.614Z,17.40
2023-05-06T19:58:38.960Z,17.40
2023-05-06T20:01:07.495Z,17.40
2023-05-06T20:03:36.783Z,17.40
2023-05-06T20:06:05.615Z,17.50
2023-05-06T20:08:38.300Z,17.30
2023-05-06T20:11:08.443Z,17.30
2023-05-06T20:13:36.814Z,17.30
2023-05-06T20:16:05.553Z,17.20
2023-05-06T20:18:35.194Z,17.10
2023-05-06T20:21:03.814Z,17.30
2023-05-06T20:23:32.234Z,17.30
2023-05-06T20:26:02.149Z,17.10
2023-05-06T20:28:31.543Z,17.20
2023-05-06T20:31:17.500Z,17.20
2023-05-06T20:33:46.126Z,17.20
2023-05-06T20:36:14.390Z,17.30
2023-05-06T20:38:44.761Z,17.20
2023-05-06T20:41:16.727Z,17.20
2023-05-06T20:43:45.149Z,17.20
2023-05-06T20:46:13.457Z,17.10
2023-05-06T20:48:44.668Z,17.00
2023-05-06T20:51:13.145Z,17.00
2023-05-06T20:53:42.932Z,16.80
2023-05-06T20:56:24.327Z,16.80
2023-05-06T20:58:52.945Z,16.70
2023-05-06T21:01:23.243Z,16.70
2023-05-06T21:03:53.966Z,16.70
2023-05-06T21:06:22.380Z,16.60
2023-05-06T21:08:51.900Z,16.70
2023-05-06T21:11:23.687Z,16.70
2023-05-06T21:13:51.866Z,16.60
2023-05-06T21:16:20.275Z,16.60
2023-05-06T21:18:50.412Z,16.60
2023-05-06T21:21:22.027Z,16.70
2023-05-06T21:23:51.805Z,16.70
2023-05-06T21:26:21.949Z,16.70
2023-05-06T21:28:52.282Z,16.80
2023-05-06T21:31:21.371Z,16.90
2023-05-06T21:33:49.996Z,17.00
2023-05-06T21:36:19.003Z,16.90
2023-05-06T21:38:49.644Z,17.10
2023-05-06T21:41:18.061Z,17.10
2023-05-06T21:43:47.699Z,17.00
2023-05-06T21:46:16.001Z,17.00
2023-05-06T21:48:44.236Z,17.20
2023-05-06T21:51:12.369Z,17.10
2023-05-06T21:53:40.986Z,17.10
2023-05-06T21:56:11.994Z,16.90
2023-05-06T21:58:40.376Z,17.10
2023-05-06T22:01:14.546Z,17.10
2023-05-06T22:03:54.124Z,17.10
2023-05-06T22:06:22.636Z,17.10
2023-05-06T22:08:51.701Z,17.30
2023-05-06T22:11:20.120Z,17.20
2023-05-06T22:13:51.345Z,17.10
2023-05-06T22:16:21.178Z,17.10
2023-05-06T22:18:51.976Z,17.10
2023-05-06T22:21:20.271Z,17.20
2023-05-06T22:23:50.781Z,17.10
2023-05-06T22:26:19.259Z,17.10
2023-05-06T22:28:48.963Z,17.20
2023-05-06T22:31:17.361Z,17.10
2023-05-06T22:33:54.395Z,16.90
2023-05-06T22:36:22.995Z,17.10
2023-05-06T22:38:53.828Z,17.10
2023-05-06T22:41:22.213Z,17.00
2023-05-06T22:43:50.504Z,17.20
2023-05-06T22:46:19.092Z,17.10
2023-05-06T22:48:50.177Z,17.10
2023-05-06T22:51:18.655Z,17.00
2023-05-06T22:53:46.804Z,16.90
2023-05-06T22:56:14.947Z,17.00
2023-05-06T22:58:43.480Z,16.90
2023-05-06T23:01:12.171Z,17.00
2023-05-06T23:03:43.558Z,17.00
2023-05-06T23:06:16.155Z,17.00
2023-05-06T23:08:44.451Z,17.10
2023-05-06T23:11:12.804Z,17.10
2023-05-06T23:13:41.098Z,17.00
2023-05-06T23:16:11.513Z,17.00
2023-05-06T23:18:39.823Z,17.00
2023-05-06T23:21:08.052Z,16.90
2023-05-06T23:23:37.725Z,16.90
2023-05-06T23:26:05.927Z,17.00
2023-05-06T23:28:34.380Z,16.90
2023-05-06T23:31:03.118Z,16.90
2023-05-06T23:33:31.449Z,16.90
2023-05-06T23:36:00.992Z,16.90
2023-05-06T23:38:29.105Z,16.80
2023-05-06T23:40:58.936Z,16.90
2023-05-06T23:43:26.994Z,16.90
2023-05-06T23:45:55.635Z,16.80
2023-05-06T23:48:24.043Z,16.90
2023-05-06T23:50:54.495Z,16.90
2023-05-06T23:53:23.414Z,16.90
2023-05-06T23:55:51.882Z,16.80
2023-05-06T23:58:21.500Z,16.80
